Time,TemperatureF,DewpointF,PressureIn,WindDirection,WindDirectionDegrees,WindSpeedMPH,WindSpeedGustMPH,Humidity,HourlyPrecipIn,Conditions,Clouds,dailyrainin,SoftwareType,DateUTC
2013-12-07 00:01:00,57.2,56.8,29.98,East,101,0.0,3.0,99,0.03,,,1.03,meteohub,2013-12-07 05:01:00,
2013-12-07 00:02:00,57.2,56.8,29.98,ESE,102,0.0,3.0,99,0.03,,,1.03,meteohub,2013-12-07 05:02:00,
2013-12-07 00:07:00,57.0,56.7,29.98,East,101,0.0,3.0,99,0.02,,,1.03,meteohub,2013-12-07 05:07:00,
2013-12-07 00:12:00,56.8,56.5,29.98,East,101,0.0,3.0,99,0.01,,,1.03,meteohub,2013-12-07 05:12:00,
2013-12-07 00:17:00,56.8,56.5,29.98,ESE,103,0.0,0.0,99,0.01,,,1.03,meteohub,2013-12-07 05:17:00,
2013-12-07 00:22:00,56.8,56.5,29.98,West,263,1.0,0.0,99,0.01,,,1.03,meteohub,2013-12-07 05:22:00,
2013-12-07 00:27:00,56.7,56.3,29.98,East,98,0.0,1.0,99,0.00,,,1.03,meteohub,2013-12-07 05:27:00,
2013-12-07 00:32:00,56.7,56.3,29.98,ESE,109,1.0,1.0,99,0.00,,,1.03,meteohub,2013-12-07 05:32:00,
2013-12-07 00:37:00,56.7,56.3,29.98,NNW,335,0.0,3.0,99,0.00,,,1.03,meteohub,2013-12-07 05:37:00,
2013-12-07 00:42:00,56.7,56.3,29.98,NNW,335,0.0,3.0,99,0.00,,,1.03,meteohub,2013-12-07 05:42:00,
2013-12-07 00:47:00,56.7,56.3,29.98,NNW,334,0.0,3.0,99,0.00,,,1.03,meteohub,2013-12-07 05:47:00,
2013-12-07 00:52:00,56.5,56.1,29.98,NNW,336,0.0,1.0,99,0.00,,,1.03,meteohub,2013-12-07 05:52:00,
2013-12-07 00:57:00,55.4,54.9,29.98,NNE,12,1.0,1.0,98,0.00,,,1.03,meteohub,2013-12-07 05:57:00,
2013-12-07 01:02:00,54.3,53.4,29.97,NNE,25,0.0,2.0,97,0.00,,,1.03,meteohub,2013-12-07 06:02:00,
2013-12-07 08:14:00,40.6,40.5,30.14,North,-999,-999.0,-999.0,99,-99.99,,,1.03,meteohub,2013-12-07 13:14:00,
2013-12-07 08:19:00,40.5,40.3,30.15,North,-999,-999.0,-999.0,99,-99.99,,,1.03,meteohub,2013-12-07 13:19:00,
2013-12-07 08:24:00,40.5,40.3,30.16,NNW,346,4.0,-999.0,99,0.00,,,1.03,meteohub,2013-12-07 13:24:00,
2013-12-07 08:29:00,40.3,40.1,30.16,NNW,338,4.0,14.0,99,0.00,,,1.03,meteohub,2013-12-07 13:29:00,
2013-12-07 08:34:00,40.5,40.3,30.16,NE,44,2.0,14.0,99,0.00,,,1.03,meteohub,2013-12-07 13:34:00,
2013-12-07 08:39:00,40.5,40.3,30.16,NW,305,2.0,14.0,99,0.00,,,1.03,meteohub,2013-12-07 13:39:00,
2013-12-07 08:44:00,40.5,40.3,30.16,North,359,3.0,12.0,99,0.00,,,1.03,meteohub,2013-12-07 13:44:00,
2013-12-07 08:49:00,40.6,40.5,30.16,North,11,5.0,13.0,99,0.00,,,1.03,meteohub,2013-12-07 13:49:00,
2013-12-07 08:54:00,40.5,40.3,30.17,NNW,338,7.0,13.0,99,0.00,,,1.03,meteohub,2013-12-07 13:54:00,
2013-12-07 08:59:00,40.5,40.3,30.17,ENE,72,5.0,13.0,99,0.00,,,1.03,meteohub,2013-12-07 13:59:00,
2013-12-07 09:04:00,40.6,40.5,30.17,North,359,6.0,12.0,99,0.00,,,1.03,meteohub,2013-12-07 14:04:00,
2013-12-07 09:09:00,40.6,40.5,30.18,NE,46,8.0,12.0,99,0.00,,,1.03,meteohub,2013-12-07 14:09:00,
2013-12-07 09:14:00,40.6,40.5,30.18,NE,48,2.0,12.0,99,0.00,,,1.03,meteohub,2013-12-07 14:14:00,
2013-12-07 09:19:00,40.8,40.6,30.19,NW,307,2.0,12.0,99,0.00,,,1.03,meteohub,2013-12-07 14:19:00,
2013-12-07 09:24:00,40.8,40.6,30.19,ENE,61,1.0,12.0,99,0.00,,,1.03,meteohub,2013-12-07 14:24:00,
2013-12-07 09:30:00,41.0,40.5,30.19,SE,134,0.0,12.0,98,0.00,,,1.03,meteohub,2013-12-07 14:30:00,
2013-12-07 09:35:00,41.0,40.5,30.19,NE,46,1.0,12.0,98,0.00,,,1.03,meteohub,2013-12-07 14:35:00,
2013-12-07 09:40:00,41.2,40.6,30.20,North,8,7.0,9.0,98,0.00,,,1.03,meteohub,2013-12-07 14:40:00,
2013-12-07 09:45:00,41.5,41.0,30.20,East,87,1.0,9.0,98,0.00,,,1.03,meteohub,2013-12-07 14:45:00,
2013-12-07 09:50:00,42.1,41.5,30.20,NNE,13,1.0,7.0,98,0.00,,,1.03,meteohub,2013-12-07 14:50:00,
2013-12-07 09:55:00,42.3,41.5,30.20,East,84,0.0,7.0,97,0.00,,,1.03,meteohub,2013-12-07 14:55:00,
2013-12-07 10:00:00,43.3,42.6,30.21,South,172,1.0,6.0,97,0.00,,,1.03,meteohub,2013-12-07 15:00:00,
2013-12-07 10:05:00,44.2,43.0,30.21,NNE,31,1.0,7.0,95,0.00,,,1.03,meteohub,2013-12-07 15:05:00,
2013-12-07 10:10:00,45.0,43.3,30.21,NE,50,3.0,7.0,94,0.00,,,1.03,meteohub,2013-12-07 15:10:00,
2013-12-07 10:15:00,45.0,43.0,30.22,East,79,1.0,7.0,93,0.00,,,1.03,meteohub,2013-12-07 15:15:00,
2013-12-07 10:20:00,45.3,43.3,30.22,NNW,330,0.0,7.0,93,0.00,,,1.03,meteohub,2013-12-07 15:20:00,
2013-12-07 10:25:00,46.2,43.7,30.22,NNW,336,1.0,7.0,91,0.00,,,1.03,meteohub,2013-12-07 15:25:00,
2013-12-07 10:30:00,46.9,44.4,30.22,NE,49,0.0,3.0,91,0.00,,,1.03,meteohub,2013-12-07 15:30:00,
2013-12-07 10:35:00,47.5,44.1,30.22,ESE,123,1.0,3.0,88,0.00,,,1.03,meteohub,2013-12-07 15:35:00,
2013-12-07 10:40:00,47.7,44.2,30.22,ENE,65,2.0,4.0,88,0.00,,,1.03,meteohub,2013-12-07 15:40:00,
2013-12-07 10:45:00,47.8,43.9,30.22,East,98,5.0,5.0,86,0.00,,,1.03,meteohub,2013-12-07 15:45:00,
2013-12-07 10:50:00,47.8,44.4,30.22,ENE,63,4.0,7.0,88,0.00,,,1.03,meteohub,2013-12-07 15:50:00,
2013-12-07 10:55:00,47.8,44.4,30.22,WNW,295,0.0,7.0,88,0.00,,,1.03,meteohub,2013-12-07 15:55:00,
2013-12-07 11:00:00,48.0,44.4,30.22,NNW,338,3.0,6.0,87,0.00,,,1.03,meteohub,2013-12-07 16:00:00,
2013-12-07 11:05:00,48.0,44.4,30.22,ENE,61,0.0,6.0,87,0.00,,,1.03,meteohub,2013-12-07 16:05:00,
2013-12-07 11:10:00,48.7,45.0,30.22,NE,54,3.0,6.0,87,0.00,,,1.03,meteohub,2013-12-07 16:10:00,
2013-12-07 11:16:00,49.1,45.3,30.22,NE,38,1.0,6.0,87,0.00,,,1.03,meteohub,2013-12-07 16:16:00,
2013-12-07 11:21:00,49.5,45.1,30.22,East,84,0.0,8.0,85,0.00,,,1.03,meteohub,2013-12-07 16:21:00,
2013-12-07 11:26:00,49.3,45.0,30.22,ESE,117,1.0,8.0,85,0.00,,,1.03,meteohub,2013-12-07 16:26:00,
2013-12-07 11:31:00,48.9,45.0,30.22,NNE,25,0.0,8.0,86,0.00,,,1.03,meteohub,2013-12-07 16:31:00,
2013-12-07 11:36:00,49.1,44.8,30.21,NE,43,0.0,6.0,85,0.00,,,1.03,meteohub,2013-12-07 16:36:00,
2013-12-07 11:41:00,49.3,45.3,30.21,NNW,346,5.0,5.0,86,0.00,,,1.03,meteohub,2013-12-07 16:41:00,
2013-12-07 11:46:00,49.3,45.3,30.20,North,1,1.0,6.0,86,0.00,,,1.03,meteohub,2013-12-07 16:46:00,
2013-12-07 11:51:00,49.8,45.1,30.20,East,93,4.0,6.0,84,0.00,,,1.03,meteohub,2013-12-07 16:51:00,
2013-12-07 11:56:00,50.2,45.5,30.20,ENE,69,6.0,6.0,84,0.00,,,1.03,meteohub,2013-12-07 16:56:00,
2013-12-07 12:01:00,50.2,45.1,30.20,ENE,74,2.0,6.0,83,0.00,,,1.03,meteohub,2013-12-07 17:01:00,
2013-12-07 12:06:00,50.4,45.3,30.20,NNW,335,1.0,8.0,83,0.00,,,1.03,meteohub,2013-12-07 17:06:00,
2013-12-07 12:11:00,50.5,45.5,30.20,NE,53,2.0,8.0,83,0.00,,,1.03,meteohub,2013-12-07 17:11:00,
2013-12-07 12:16:00,51.1,45.9,30.20,NE,54,5.0,8.0,82,0.00,,,1.03,meteohub,2013-12-07 17:16:00,
2013-12-07 12:21:00,50.9,45.7,30.20,ESE,122,2.0,5.0,82,0.00,,,1.03,meteohub,2013-12-07 17:21:00,
2013-12-07 12:26:00,51.6,46.2,30.20,ENE,67,2.0,5.0,82,0.00,,,1.03,meteohub,2013-12-07 17:26:00,
2013-12-07 12:31:00,53.1,46.8,30.20,North,350,0.0,5.0,79,0.00,,,1.03,meteohub,2013-12-07 17:31:00,
2013-12-07 12:36:00,52.9,46.2,30.20,NE,53,3.0,6.0,78,0.00,,,1.03,meteohub,2013-12-07 17:36:00,
2013-12-07 12:41:00,52.3,46.0,30.20,ENE,78,3.0,8.0,79,0.00,,,1.03,meteohub,2013-12-07 17:41:00,
2013-12-07 12:46:00,52.0,45.7,30.20,NW,316,3.0,8.0,79,0.00,,,1.03,meteohub,2013-12-07 17:46:00,
2013-12-07 12:51:00,52.0,46.0,30.20,NW,318,1.0,8.0,80,0.00,,,1.03,meteohub,2013-12-07 17:51:00,
2013-12-07 12:56:00,52.2,45.9,30.19,WNW,291,1.0,8.0,79,0.00,,,1.03,meteohub,2013-12-07 17:56:00,
2013-12-07 13:01:00,52.2,45.9,30.19,ENE,63,2.0,10.0,79,0.00,,,1.03,meteohub,2013-12-07 18:01:00,
2013-12-07 13:06:00,52.5,46.6,30.19,North,3,3.0,10.0,80,0.00,,,1.03,meteohub,2013-12-07 18:06:00,
2013-12-07 13:11:00,52.5,46.2,30.19,ENE,76,2.0,9.0,79,0.00,,,1.03,meteohub,2013-12-07 18:11:00,
2013-12-07 13:17:00,52.5,45.9,30.19,East,82,2.0,6.0,78,0.00,,,1.03,meteohub,2013-12-07 18:17:00,
2013-12-07 13:22:00,52.0,45.7,30.19,NNE,15,2.0,11.0,79,0.00,,,1.03,meteohub,2013-12-07 18:22:00,
2013-12-07 13:27:00,51.6,45.3,30.19,NNW,334,4.0,12.0,79,0.00,,,1.03,meteohub,2013-12-07 18:27:00,
2013-12-07 13:32:00,51.6,45.3,30.19,NNE,16,7.0,12.0,79,0.00,,,1.03,meteohub,2013-12-07 18:32:00,
2013-12-07 13:37:00,52.0,46.0,30.19,North,1,2.0,10.0,80,0.00,,,1.03,meteohub,2013-12-07 18:37:00,
2013-12-07 13:42:00,51.4,44.8,30.19,NNW,345,3.0,10.0,78,0.00,,,1.03,meteohub,2013-12-07 18:42:00,
2013-12-07 13:47:00,51.3,45.0,30.19,NE,45,6.0,13.0,79,0.00,,,1.03,meteohub,2013-12-07 18:47:00,
2013-12-07 13:52:00,50.9,45.0,30.19,NW,323,1.0,13.0,80,0.00,,,1.03,meteohub,2013-12-07 18:52:00,
2013-12-07 13:57:00,50.7,44.4,30.19,NNW,338,7.0,13.0,79,0.00,,,1.03,meteohub,2013-12-07 18:57:00,
2013-12-07 14:02:00,50.9,44.6,30.19,North,358,3.0,12.0,79,0.00,,,1.03,meteohub,2013-12-07 19:02:00,
2013-12-07 14:07:00,51.1,45.1,30.18,NNW,334,2.0,12.0,80,0.00,,,1.03,meteohub,2013-12-07 19:07:00,
2013-12-07 14:12:00,51.3,45.0,30.18,NNW,342,5.0,12.0,79,0.00,,,1.03,meteohub,2013-12-07 19:12:00,
2013-12-07 14:17:00,51.4,44.8,30.19,NE,53,5.0,10.0,78,0.00,,,1.03,meteohub,2013-12-07 19:17:00,
2013-12-07 14:22:00,51.6,45.0,30.19,East,79,1.0,9.0,78,0.00,,,1.03,meteohub,2013-12-07 19:22:00,
2013-12-07 14:27:00,51.3,44.6,30.18,ENE,62,0.0,9.0,78,0.00,,,1.03,meteohub,2013-12-07 19:27:00,
2013-12-07 14:32:00,51.1,44.4,30.19,North,356,1.0,9.0,78,0.00,,,1.03,meteohub,2013-12-07 19:32:00,
2013-12-07 14:37:00,51.1,44.4,30.19,NE,43,3.0,9.0,78,0.00,,,1.03,meteohub,2013-12-07 19:37:00,
2013-12-07 14:42:00,50.9,44.6,30.19,NNW,328,4.0,10.0,79,0.00,,,1.03,meteohub,2013-12-07 19:42:00,
2013-12-07 14:47:00,50.7,44.4,30.19,North,5,9.0,12.0,79,0.00,,,1.03,meteohub,2013-12-07 19:47:00,
2013-12-07 14:52:00,50.7,44.4,30.19,ESE,111,1.0,12.0,79,0.00,,,1.03,meteohub,2013-12-07 19:52:00,
2013-12-07 14:57:00,50.9,44.6,30.19,NNW,338,2.0,12.0,79,0.00,,,1.03,meteohub,2013-12-07 19:57:00,
2013-12-07 15:02:00,50.7,44.4,30.19,North,354,1.0,12.0,79,0.00,,,1.03,meteohub,2013-12-07 20:02:00,
2013-12-07 15:07:00,51.1,44.8,30.19,NE,53,5.0,8.0,79,0.00,,,1.03,meteohub,2013-12-07 20:07:00,
2013-12-07 15:12:00,50.7,44.4,30.19,North,351,4.0,8.0,79,0.00,,,1.03,meteohub,2013-12-07 20:12:00,
2013-12-07 15:17:00,50.5,44.2,30.19,NE,34,8.0,10.0,79,0.00,,,1.03,meteohub,2013-12-07 20:17:00,
2013-12-07 15:22:00,50.4,44.1,30.19,NNE,28,7.0,10.0,79,0.00,,,1.03,meteohub,2013-12-07 20:22:00,
2013-12-07 15:27:00,50.2,43.9,30.19,North,355,4.0,10.0,79,0.00,,,1.03,meteohub,2013-12-07 20:27:00,
2013-12-07 15:32:00,50.2,44.2,30.19,NNW,340,3.0,10.0,80,0.00,,,1.03,meteohub,2013-12-07 20:32:00,
2013-12-07 15:37:00,50.0,44.1,30.20,ENE,62,2.0,10.0,80,0.00,,,1.03,meteohub,2013-12-07 20:37:00,
2013-12-07 15:42:00,50.0,44.1,30.20,North,355,9.0,9.0,80,0.00,,,1.03,meteohub,2013-12-07 20:42:00,
2013-12-07 15:47:00,49.8,43.9,30.20,ENE,61,1.0,9.0,80,0.00,,,1.03,meteohub,2013-12-07 20:47:00,
2013-12-07 15:52:00,49.6,43.7,30.21,NNW,333,2.0,9.0,80,0.00,,,1.03,meteohub,2013-12-07 20:52:00,
2013-12-07 15:57:00,49.6,44.1,30.21,NNW,348,2.0,9.0,81,0.00,,,1.03,meteohub,2013-12-07 20:57:00,
2013-12-07 16:02:00,49.6,43.7,30.21,NNW,328,9.0,9.0,80,0.00,,,1.03,meteohub,2013-12-07 21:02:00,
2013-12-07 16:07:00,49.5,43.9,30.21,NNE,33,1.0,9.0,81,0.00,,,1.03,meteohub,2013-12-07 21:07:00,
2013-12-07 16:12:00,49.3,43.7,30.21,NNW,333,3.0,10.0,81,0.00,,,1.03,meteohub,2013-12-07 21:12:00,
2013-12-07 16:17:00,49.3,43.7,30.21,NNE,17,4.0,10.0,81,0.00,,,1.03,meteohub,2013-12-07 21:17:00,
2013-12-07 16:22:00,49.1,43.5,30.21,NNW,338,4.0,9.0,81,0.00,,,1.03,meteohub,2013-12-07 21:22:00,
2013-12-07 16:27:00,48.9,43.3,30.22,NNW,327,5.0,9.0,81,0.00,,,1.03,meteohub,2013-12-07 21:27:00,
2013-12-07 16:32:00,48.9,43.7,30.22,NE,49,5.0,9.0,82,0.00,,,1.03,meteohub,2013-12-07 21:32:00,
2013-12-07 16:37:00,48.9,43.7,30.22,North,356,7.0,7.0,82,0.00,,,1.03,meteohub,2013-12-07 21:37:00,
2013-12-07 16:42:00,48.9,43.7,30.22,NW,321,2.0,7.0,82,0.00,,,1.03,meteohub,2013-12-07 21:42:00,
2013-12-07 16:47:00,48.7,43.5,30.22,NNW,336,4.0,7.0,82,0.00,,,1.03,meteohub,2013-12-07 21:47:00,
2013-12-07 16:52:00,48.7,43.9,30.22,NNW,345,4.0,9.0,83,0.00,,,1.03,meteohub,2013-12-07 21:52:00,
2013-12-07 16:57:00,48.6,43.7,30.22,NNE,28,4.0,9.0,83,0.00,,,1.03,meteohub,2013-12-07 21:57:00,
2013-12-07 17:02:00,48.4,43.5,30.22,NNE,23,4.0,9.0,83,0.00,,,1.03,meteohub,2013-12-07 22:02:00,
2013-12-07 17:07:00,48.2,43.0,30.22,North,0,6.0,8.0,82,0.00,,,1.03,meteohub,2013-12-07 22:07:00,
2013-12-07 17:12:00,48.0,43.2,30.23,NNE,25,4.0,9.0,83,0.00,,,1.03,meteohub,2013-12-07 22:12:00,
2013-12-07 17:17:00,47.8,43.0,30.23,NNW,341,3.0,9.0,83,0.00,,,1.03,meteohub,2013-12-07 22:17:00,
2013-12-07 17:22:00,47.7,42.8,30.23,NNE,29,4.0,9.0,83,0.00,,,1.03,meteohub,2013-12-07 22:22:00,
2013-12-07 17:27:00,47.5,42.6,30.24,North,353,5.0,8.0,83,0.00,,,1.03,meteohub,2013-12-07 22:27:00,
2013-12-07 17:32:00,47.3,42.8,30.24,North,5,5.0,8.0,84,0.00,,,1.03,meteohub,2013-12-07 22:32:00,
2013-12-07 17:37:00,47.1,42.6,30.24,NNE,23,5.0,8.0,84,0.00,,,1.03,meteohub,2013-12-07 22:37:00,
2013-12-07 17:42:00,46.9,42.6,30.25,North,6,5.0,8.0,85,0.00,,,1.03,meteohub,2013-12-07 22:42:00,
2013-12-07 17:47:00,46.9,42.6,30.25,NNW,338,2.0,8.0,85,0.00,,,1.03,meteohub,2013-12-07 22:47:00,
2013-12-07 17:52:00,46.9,42.6,30.25,North,3,1.0,7.0,85,0.00,,,1.03,meteohub,2013-12-07 22:52:00,
2013-12-07 17:57:00,46.8,42.4,30.25,North,10,2.0,7.0,85,0.00,,,1.03,meteohub,2013-12-07 22:57:00,
2013-12-07 18:02:00,46.8,42.4,30.25,North,356,2.0,7.0,85,0.00,,,1.03,meteohub,2013-12-07 23:02:00,
2013-12-07 18:07:00,46.6,42.3,30.25,NNE,16,3.0,7.0,85,0.00,,,1.03,meteohub,2013-12-07 23:07:00,
2013-12-07 18:12:00,46.4,42.4,30.25,NE,53,3.0,7.0,86,0.00,,,1.03,meteohub,2013-12-07 23:12:00,
2013-12-07 18:17:00,46.2,42.3,30.26,North,11,2.0,8.0,86,0.00,,,1.03,meteohub,2013-12-07 23:17:00,
2013-12-07 18:22:00,46.0,42.1,30.26,NNW,348,4.0,8.0,86,0.00,,,1.03,meteohub,2013-12-07 23:22:00,
2013-12-07 18:27:00,45.9,41.9,30.26,NE,56,2.0,8.0,86,0.00,,,1.03,meteohub,2013-12-07 23:27:00,
2013-12-07 18:32:00,45.9,42.3,30.27,NE,43,0.0,7.0,87,0.00,,,1.03,meteohub,2013-12-07 23:32:00,
2013-12-07 18:37:00,45.9,41.9,30.27,NNW,328,0.0,6.0,86,0.00,,,1.03,meteohub,2013-12-07 23:37:00,
2013-12-07 18:42:00,45.7,42.1,30.27,NNW,342,2.0,5.0,87,0.00,,,1.03,meteohub,2013-12-07 23:42:00,
2013-12-07 18:47:00,45.5,41.9,30.27,NNW,347,3.0,5.0,87,0.00,,,1.03,meteohub,2013-12-07 23:47:00,
2013-12-07 18:52:00,45.3,41.7,30.28,North,1,6.0,6.0,87,0.00,,,1.03,meteohub,2013-12-07 23:52:00,
2013-12-07 18:57:00,45.1,41.7,30.28,North,6,1.0,6.0,88,0.00,,,1.03,meteohub,2013-12-07 23:57:00,
2013-12-07 19:02:00,45.0,41.5,30.28,NNW,338,2.0,6.0,88,0.00,,,1.03,meteohub,2013-12-08 00:02:00,
2013-12-07 19:07:00,45.0,41.9,30.28,NW,326,2.0,6.0,89,0.00,,,0.00,meteohub,2013-12-08 00:07:00,
2013-12-07 19:12:00,44.8,41.7,30.29,NE,39,1.0,6.0,89,0.00,,,0.00,meteohub,2013-12-08 00:12:00,
2013-12-07 19:17:00,44.4,41.7,30.29,North,352,7.0,7.0,90,0.00,,,0.00,meteohub,2013-12-08 00:17:00,
2013-12-07 19:22:00,44.2,41.5,30.29,North,6,0.0,7.0,90,0.00,,,0.00,meteohub,2013-12-08 00:22:00,
2013-12-07 19:27:00,44.1,41.4,30.29,NE,49,3.0,7.0,90,0.00,,,0.00,meteohub,2013-12-08 00:27:00,
2013-12-07 19:32:00,44.1,41.5,30.29,NE,39,0.0,7.0,91,0.00,,,0.00,meteohub,2013-12-08 00:32:00,
2013-12-07 19:37:00,43.9,41.4,30.29,NE,48,4.0,7.0,91,0.00,,,0.00,meteohub,2013-12-08 00:37:00,
2013-12-07 19:42:00,43.5,41.4,30.29,North,4,6.0,7.0,92,0.00,,,0.00,meteohub,2013-12-08 00:42:00,
2013-12-07 19:47:00,43.5,41.4,30.30,NNW,348,2.0,7.0,92,0.00,,,0.00,meteohub,2013-12-08 00:47:00,
2013-12-07 19:52:00,43.5,41.4,30.29,NE,46,1.0,7.0,92,0.00,,,0.00,meteohub,2013-12-08 00:52:00,
2013-12-07 19:57:00,43.5,41.4,30.30,North,10,4.0,7.0,92,0.00,,,0.00,meteohub,2013-12-08 00:57:00,
2013-12-07 20:02:00,43.3,41.2,30.30,NW,316,5.0,7.0,92,0.00,,,0.00,meteohub,2013-12-08 01:02:00,
2013-12-07 20:07:00,43.3,41.2,30.30,ENE,60,3.0,8.0,92,0.00,,,0.00,meteohub,2013-12-08 01:07:00,
2013-12-07 20:12:00,43.2,41.0,30.30,NE,43,2.0,8.0,92,0.00,,,0.00,meteohub,2013-12-08 01:12:00,
2013-12-07 20:17:00,43.2,41.4,30.31,NNE,16,1.0,8.0,93,0.00,,,0.00,meteohub,2013-12-08 01:17:00,
2013-12-07 20:22:00,43.0,41.4,30.30,ENE,60,3.0,7.0,94,0.00,,,0.00,meteohub,2013-12-08 01:22:00,
2013-12-07 20:27:00,42.8,41.5,30.31,NNW,338,2.0,8.0,95,0.00,,,0.00,meteohub,2013-12-08 01:27:00,
2013-12-07 20:32:00,42.6,41.4,30.31,NE,41,2.0,8.0,95,0.00,,,0.00,meteohub,2013-12-08 01:32:00,
2013-12-07 20:37:00,42.4,41.4,30.31,North,349,2.0,8.0,96,0.00,,,0.00,meteohub,2013-12-08 01:37:00,
2013-12-07 20:42:00,42.4,41.4,30.31,NNE,18,2.0,7.0,96,0.00,,,0.00,meteohub,2013-12-08 01:42:00,
2013-12-07 20:47:00,42.3,41.5,30.32,NW,321,2.0,6.0,97,0.00,,,0.00,meteohub,2013-12-08 01:47:00,
2013-12-07 20:52:00,42.1,41.4,30.31,NNW,346,4.0,8.0,97,0.00,,,0.00,meteohub,2013-12-08 01:52:00,
2013-12-07 20:57:00,42.1,41.4,30.32,NE,53,0.0,8.0,97,0.00,,,0.00,meteohub,2013-12-08 01:57:00,
2013-12-07 21:02:00,42.1,41.5,30.32,NE,46,4.0,7.0,98,0.00,,,0.00,meteohub,2013-12-08 02:02:00,
2013-12-07 21:07:00,41.9,41.4,30.32,WNW,288,0.0,7.0,98,0.00,,,0.00,meteohub,2013-12-08 02:07:00,
2013-12-07 21:12:00,41.9,41.4,30.32,ESE,108,1.0,7.0,98,0.00,,,0.00,meteohub,2013-12-08 02:12:00,
2013-12-07 21:17:00,41.7,41.2,30.32,North,355,3.0,7.0,98,0.00,,,0.00,meteohub,2013-12-08 02:17:00,
2013-12-07 21:22:00,41.7,41.2,30.33,North,353,4.0,7.0,98,0.00,,,0.00,meteohub,2013-12-08 02:22:00,
2013-12-07 21:27:00,41.7,41.2,30.33,ENE,72,5.0,7.0,98,0.00,,,0.00,meteohub,2013-12-08 02:27:00,
2013-12-07 21:32:00,41.7,41.2,30.33,North,354,2.0,8.0,98,0.00,,,0.00,meteohub,2013-12-08 02:32:00,
2013-12-07 21:37:00,41.5,41.4,30.34,NNE,16,4.0,8.0,99,0.00,,,0.00,meteohub,2013-12-08 02:37:00,
2013-12-07 21:42:00,41.7,41.5,30.33,North,4,3.0,8.0,99,0.00,,,0.00,meteohub,2013-12-08 02:42:00,
2013-12-07 21:47:00,41.5,41.4,30.33,NNE,17,6.0,6.0,99,0.00,,,0.00,meteohub,2013-12-08 02:47:00,
2013-12-07 21:52:00,41.5,41.4,30.33,NNW,342,3.0,6.0,99,0.00,,,0.00,meteohub,2013-12-08 02:52:00,
2013-12-07 21:57:00,41.5,41.4,30.33,NNE,17,1.0,6.0,99,0.00,,,0.00,meteohub,2013-12-08 02:57:00,
2013-12-07 22:02:00,41.5,41.4,30.33,North,4,1.0,7.0,99,0.00,,,0.00,meteohub,2013-12-08 03:02:00,
2013-12-07 22:07:00,41.5,41.4,30.34,North,359,3.0,7.0,99,0.00,,,0.00,meteohub,2013-12-08 03:07:00,
2013-12-07 22:12:00,41.5,41.4,30.34,North,357,3.0,7.0,99,0.00,,,0.00,meteohub,2013-12-08 03:12:00,
2013-12-07 22:17:00,41.5,41.4,30.34,NNE,16,1.0,5.0,99,0.00,,,0.00,meteohub,2013-12-08 03:17:00,
2013-12-07 22:22:00,41.5,41.4,30.34,North,6,1.0,4.0,99,0.00,,,0.00,meteohub,2013-12-08 03:22:00,
2013-12-07 22:27:00,41.7,41.5,30.35,North,6,1.0,4.0,99,0.00,,,0.00,meteohub,2013-12-08 03:27:00,
2013-12-07 22:32:00,41.7,41.5,30.35,NE,48,0.0,4.0,99,0.00,,,0.00,meteohub,2013-12-08 03:32:00,
2013-12-07 22:37:00,41.7,41.5,30.35,NE,39,4.0,4.0,99,0.00,,,0.00,meteohub,2013-12-08 03:37:00,
2013-12-07 22:42:00,41.7,41.5,30.35,NNE,15,1.0,4.0,99,0.00,,,0.00,meteohub,2013-12-08 03:42:00,
2013-12-07 22:47:00,41.7,41.5,30.33,NNE,15,3.0,4.0,99,0.00,,,0.00,meteohub,2013-12-08 03:47:00,
2013-12-07 22:52:00,41.7,41.5,30.33,ESE,114,0.0,4.0,99,0.00,,,0.00,meteohub,2013-12-08 03:52:00,
2013-12-07 22:57:00,41.7,41.5,30.34,NNE,30,0.0,4.0,99,0.00,,,0.00,meteohub,2013-12-08 03:57:00,
2013-12-07 23:02:00,41.7,41.5,30.34,NE,46,0.0,4.0,99,0.00,,,0.00,meteohub,2013-12-08 04:02:00,
2013-12-07 23:07:00,41.7,41.5,30.34,ENE,77,0.0,3.0,99,0.00,,,0.00,meteohub,2013-12-08 04:07:00,
2013-12-07 23:12:00,41.7,41.5,30.34,ENE,77,0.0,3.0,99,0.00,,,0.00,meteohub,2013-12-08 04:12:00,
2013-12-07 23:17:00,41.7,41.5,30.35,ENE,73,4.0,4.0,99,0.00,,,0.00,meteohub,2013-12-08 04:17:00,
2013-12-07 23:22:00,41.7,41.5,30.35,East,82,0.0,4.0,99,0.00,,,0.00,meteohub,2013-12-08 04:22:00,
2013-12-07 23:27:00,41.7,41.5,30.35,NE,34,1.0,4.0,99,0.00,,,0.00,meteohub,2013-12-08 04:27:00,
2013-12-07 23:32:00,41.7,41.5,30.34,East,88,0.0,4.0,99,0.00,,,0.00,meteohub,2013-12-08 04:32:00,
2013-12-07 23:37:00,41.5,41.4,30.34,ENE,76,3.0,3.0,99,0.00,,,0.00,meteohub,2013-12-08 04:37:00,
2013-12-07 23:42:00,41.5,41.4,30.34,ENE,62,1.0,5.0,99,0.00,,,0.00,meteohub,2013-12-08 04:42:00,
2013-12-07 23:47:00,41.7,41.5,30.35,North,6,0.0,5.0,99,0.00,,,0.00,meteohub,2013-12-08 04:47:00,
2013-12-07 23:52:00,41.5,41.4,30.35,North,357,1.0,5.0,99,0.01,,,0.01,meteohub,2013-12-08 04:52:00,
2013-12-07 23:57:00,41.5,41.4,30.35,North,355,0.0,3.0,99,0.01,,,0.01,meteohub,2013-12-08 04:57:00,